createdAt,value
2023-04-27T00:00:54.342Z,58.90
2023-04-27T00:03:25.034Z,58.70
2023-04-27T00:05:52.713Z,58.50
2023-04-27T00:08:19.695Z,58.70
2023-04-27T00:10:46.820Z,58.90
2023-04-27T00:13:13.609Z,59.10
2023-04-27T00:15:41.269Z,58.90
2023-04-27T00:18:08.177Z,59.00
2023-04-27T00:20:35.707Z,59.10
2023-04-27T00:23:02.526Z,59.00
2023-04-27T00:25:29.374Z,58.70
2023-04-27T00:27:56.564Z,58.80
2023-04-27T00:30:23.517Z,58.90
2023-04-27T00:32:51.059Z,59.00
2023-04-27T00:35:17.949Z,59.10
2023-04-27T00:37:44.805Z,59.20
2023-04-27T00:40:12.263Z,59.30
2023-04-27T00:42:39.042Z,59.40
2023-04-27T00:45:07.038Z,59.50
2023-04-27T00:47:34.948Z,59.60
2023-04-27T00:50:02.336Z,59.50
2023-04-27T00:52:29.199Z,59.70
2023-04-27T00:54:56.000Z,59.70
2023-04-27T00:57:23.458Z,59.80
2023-04-27T00:59:50.386Z,59.80
2023-04-27T01:02:18.106Z,59.90
2023-04-27T01:04:45.401Z,59.90
2023-04-27T01:07:12.853Z,60.00
2023-04-27T01:09:39.603Z,60.10
2023-04-27T01:12:06.908Z,60.10
2023-04-27T01:14:33.753Z,60.10
2023-04-27T01:17:00.974Z,60.00
2023-04-27T01:19:28.786Z,60.00
2023-04-27T01:21:55.921Z,61.00
2023-04-27T01:24:23.253Z,60.20
2023-04-27T01:26:52.337Z,61.10
2023-04-27T01:29:19.260Z,60.40
2023-04-27T01:31:46.806Z,60.50
2023-04-27T01:34:13.602Z,60.50
2023-04-27T01:36:40.582Z,60.50
2023-04-27T01:39:09.448Z,60.60
2023-04-27T01:41:37.491Z,60.70
2023-04-27T01:44:05.103Z,60.70
2023-04-27T01:46:32.964Z,60.80
2023-04-27T01:49:00.210Z,61.00
2023-04-27T01:51:27.705Z,61.20
2023-04-27T01:53:54.587Z,61.20
2023-04-27T01:56:21.922Z,61.30
2023-04-27T01:58:48.778Z,61.40
2023-04-27T02:01:15.734Z,61.30
2023-04-27T02:03:42.613Z,61.40
2023-04-27T02:06:09.546Z,61.40
2023-04-27T02:08:36.374Z,61.50
2023-04-27T02:11:03.309Z,61.70
2023-04-27T02:13:30.919Z,61.70
2023-04-27T02:15:57.739Z,61.70
2023-04-27T02:18:25.401Z,61.80
2023-04-27T02:20:54.357Z,61.90
2023-04-27T02:23:21.308Z,61.90
2023-04-27T02:25:48.167Z,62.10
2023-04-27T02:28:15.497Z,61.80
2023-04-27T02:30:42.751Z,61.70
2023-04-27T02:33:10.254Z,61.60
2023-04-27T02:35:37.146Z,61.70
2023-04-27T02:38:04.734Z,61.80
2023-04-27T02:40:31.538Z,61.70
2023-04-27T02:42:58.311Z,61.90
2023-04-27T02:45:25.265Z,61.90
2023-04-27T02:47:52.293Z,62.10
2023-04-27T02:50:19.366Z,62.20
2023-04-27T02:52:46.169Z,62.20
2023-04-27T02:55:15.099Z,62.30
2023-04-27T02:57:42.212Z,62.30
2023-04-27T03:00:11.056Z,62.40
2023-04-27T03:02:38.172Z,62.40
2023-04-27T03:05:06.051Z,62.40
2023-04-27T03:07:32.872Z,62.30
2023-04-27T03:10:01.119Z,62.30
2023-04-27T03:12:28.508Z,62.40
2023-04-27T03:14:56.471Z,62.50
2023-04-27T03:17:23.293Z,62.50
2023-04-27T03:19:50.844Z,62.60
2023-04-27T03:22:17.652Z,62.80
2023-04-27T03:24:44.514Z,63.00
2023-04-27T03:27:11.542Z,62.80
2023-04-27T03:29:38.471Z,63.10
2023-04-27T03:32:06.500Z,62.80
2023-04-27T03:34:33.577Z,62.80
2023-04-27T03:37:00.337Z,62.90
2023-04-27T03:39:27.791Z,63.10
2023-04-27T03:41:54.638Z,63.30
2023-04-27T03:44:24.062Z,63.40
2023-04-27T03:46:51.431Z,63.20
2023-04-27T03:49:18.213Z,63.20
2023-04-27T03:51:45.003Z,63.50
2023-04-27T03:54:12.050Z,63.70
2023-04-27T03:56:38.913Z,63.60
2023-04-27T03:59:05.984Z,63.50
2023-04-27T04:01:33.987Z,63.50
2023-04-27T04:04:01.694Z,63.50
2023-04-27T04:06:28.672Z,63.60
2023-04-27T04:08:56.172Z,63.90
2023-04-27T04:11:26.369Z,64.40
2023-04-27T04:13:53.779Z,64.40
2023-04-27T04:16:21.440Z,64.20
2023-04-27T04:18:48.884Z,64.10
2023-04-27T04:21:15.769Z,64.10
2023-04-27T04:23:42.559Z,64.00
2023-04-27T04:26:13.646Z,64.00
2023-04-27T04:28:40.447Z,64.10
2023-04-27T04:31:09.828Z,64.10
2023-04-27T04:33:37.474Z,64.10
2023-04-27T04:36:04.829Z,64.10
2023-04-27T04:38:32.954Z,64.20
2023-04-27T04:41:00.004Z,64.30
2023-04-27T04:43:26.884Z,64.40
2023-04-27T04:45:53.696Z,64.60
2023-04-27T04:48:20.549Z,64.80
2023-04-27T04:50:48.252Z,64.90
2023-04-27T04:53:15.953Z,64.90
2023-04-27T04:55:43.545Z,65.00
2023-04-27T04:58:10.885Z,65.00
2023-04-27T05:00:38.601Z,65.20
2023-04-27T05:03:07.573Z,65.20
2023-04-27T05:05:34.922Z,65.40
2023-04-27T05:08:01.712Z,65.30
2023-04-27T05:10:29.113Z,65.30
2023-04-27T05:12:55.993Z,65.30
2023-04-27T05:15:22.804Z,65.30
2023-04-27T05:17:49.893Z,65.30
2023-04-27T05:20:16.851Z,65.40
2023-04-27T05:22:44.156Z,65.40
2023-04-27T05:25:11.236Z,65.50
2023-04-27T05:27:38.075Z,65.60
2023-04-27T05:30:05.264Z,65.60
2023-04-27T05:32:33.842Z,65.70
2023-04-27T05:35:00.768Z,65.70
2023-04-27T05:37:28.269Z,65.60
2023-04-27T05:39:55.254Z,65.70
2023-04-27T05:42:22.118Z,65.70
2023-04-27T05:44:49.008Z,65.70
2023-04-27T05:47:16.522Z,65.70
2023-04-27T05:49:43.556Z,65.80
2023-04-27T05:52:10.796Z,65.80
2023-04-27T05:54:37.640Z,66.40
2023-04-27T05:57:05.156Z,65.60
2023-04-27T05:59:31.913Z,65.60
2023-04-27T06:01:59.165Z,65.70
2023-04-27T06:04:26.193Z,65.70
2023-04-27T06:06:53.055Z,65.60
2023-04-27T06:09:22.936Z,65.60
2023-04-27T06:11:52.042Z,65.90
2023-04-27T06:14:18.895Z,65.70
2023-04-27T06:16:45.664Z,65.50
2023-04-27T06:19:12.900Z,65.40
2023-04-27T06:21:39.875Z,65.40
2023-04-27T06:24:07.067Z,65.30
2023-04-27T06:26:34.637Z,65.40
2023-04-27T06:29:04.264Z,65.60
2023-04-27T06:31:31.491Z,65.70
2023-04-27T06:33:58.278Z,65.80
2023-04-27T06:36:27.860Z,65.70
2023-04-27T06:38:58.249Z,65.70
2023-04-27T06:41:27.503Z,65.70
2023-04-27T06:43:55.802Z,65.80
2023-04-27T06:46:24.025Z,66.90
2023-04-27T06:48:52.710Z,66.00
2023-04-27T06:51:19.526Z,66.10
2023-04-27T06:53:46.435Z,66.10
2023-04-27T06:56:13.232Z,66.00
2023-04-27T06:58:40.133Z,66.00
2023-04-27T07:01:07.662Z,66.00
2023-04-27T07:03:37.861Z,65.90
2023-04-27T07:06:05.043Z,65.90
2023-04-27T07:08:31.896Z,66.00
2023-04-27T07:10:58.860Z,65.90
2023-04-27T07:13:26.464Z,66.10
2023-04-27T07:16:01.042Z,66.10
2023-04-27T07:18:31.064Z,66.20
2023-04-27T07:20:58.316Z,66.30
2023-04-27T07:23:25.156Z,66.20
2023-04-27T07:25:52.108Z,66.50
2023-04-27T07:28:19.656Z,66.40
2023-04-27T07:30:46.524Z,66.40
2023-04-27T07:33:13.519Z,65.00
2023-04-27T07:35:41.305Z,64.80
2023-04-27T07:38:10.893Z,65.00
2023-04-27T07:40:38.406Z,64.90
2023-04-27T07:43:05.560Z,64.70
2023-04-27T07:45:32.883Z,64.80
2023-04-27T07:48:00.492Z,64.60
2023-04-27T07:50:28.553Z,64.40
2023-04-27T07:52:55.380Z,64.30
2023-04-27T07:55:23.543Z,64.10
2023-04-27T07:57:51.997Z,64.00
2023-04-27T08:00:19.393Z,64.10
2023-04-27T08:02:46.648Z,64.10
2023-04-27T08:05:14.417Z,63.90
2023-04-27T08:07:44.382Z,64.00
2023-04-27T08:10:12.094Z,63.70
2023-04-27T08:12:39.051Z,63.30
2023-04-27T08:15:07.068Z,63.50
2023-04-27T08:17:34.113Z,63.50
2023-04-27T08:20:02.059Z,63.50
2023-04-27T08:22:28.848Z,63.60
2023-04-27T08:24:55.571Z,63.70
2023-04-27T08:27:23.169Z,63.20
2023-04-27T08:29:50.223Z,63.50
2023-04-27T08:32:17.371Z,62.70
2023-04-27T08:34:47.120Z,62.40
2023-04-27T08:37:13.985Z,62.40
2023-04-27T08:39:40.969Z,62.00
2023-04-27T08:42:12.449Z,61.70
2023-04-27T08:44:43.418Z,61.30
2023-04-27T08:47:10.499Z,61.10
2023-04-27T08:49:41.854Z,61.00
2023-04-27T08:52:15.652Z,60.90
2023-04-27T08:54:43.617Z,60.80
2023-04-27T08:57:14.420Z,59.80
2023-04-27T08:59:41.416Z,59.80
2023-04-27T09:02:19.133Z,59.60
2023-04-27T09:04:46.840Z,59.60
2023-04-27T09:07:15.455Z,59.40
2023-04-27T09:09:42.607Z,59.20
2023-04-27T09:12:21.781Z,59.30
2023-04-27T09:14:58.298Z,59.30
2023-04-27T09:17:28.545Z,59.10
2023-04-27T09:20:13.247Z,59.00
2023-04-27T09:22:47.355Z,58.70
2023-04-27T09:25:27.827Z,58.50
2023-04-27T09:27:55.932Z,58.20
2023-04-27T09:30:22.869Z,58.10
2023-04-27T09:32:51.480Z,58.30
2023-04-27T09:35:23.330Z,57.80
2023-04-27T09:37:52.908Z,57.60
2023-04-27T09:40:26.766Z,57.70
2023-04-27T09:42:54.895Z,57.40
2023-04-27T09:45:22.197Z,57.20
2023-04-27T09:47:49.363Z,57.00
2023-04-27T09:50:16.232Z,57.10
2023-04-27T09:52:43.474Z,57.00
2023-04-27T09:55:34.591Z,56.80
2023-04-27T09:58:33.102Z,56.60
2023-04-27T10:01:26.786Z,56.60
2023-04-27T10:04:22.860Z,56.30
2023-04-27T10:07:01.454Z,56.30
2023-04-27T10:09:35.598Z,56.10
2023-04-27T10:12:23.723Z,56.10
2023-04-27T10:14:57.292Z,56.00
2023-04-27T10:17:31.745Z,55.80
2023-04-27T10:20:03.892Z,55.60
2023-04-27T10:22:46.955Z,55.30
2023-04-27T10:25:18.928Z,55.00
2023-04-27T10:28:00.272Z,54.90
2023-04-27T10:30:38.010Z,54.90
2023-04-27T10:33:10.520Z,54.60
2023-04-27T10:35:41.766Z,54.40
2023-04-27T10:38:09.211Z,54.30
2023-04-27T10:40:40.666Z,54.00
2023-04-27T10:43:12.318Z,54.00
2023-04-27T10:46:51.126Z,53.90
2023-04-27T10:49:08.858Z,53.70
2023-04-27T10:55:57.919Z,53.50
2023-04-27T10:58:23.457Z,53.30
2023-04-27T11:00:50.669Z,52.90
2023-04-27T11:03:27.202Z,53.10
2023-04-27T11:06:04.633Z,52.90
2023-04-27T11:08:33.176Z,52.70
2023-04-27T11:11:00.074Z,52.70
2023-04-27T11:13:30.676Z,52.50
2023-04-27T11:15:59.675Z,52.60
2023-04-27T11:18:29.218Z,53.00
2023-04-27T11:21:09.750Z,53.00
2023-04-27T11:23:40.150Z,52.80
2023-04-27T11:26:19.674Z,52.90
2023-04-27T11:29:00.751Z,52.70
2023-04-27T11:31:28.310Z,52.60
2023-04-27T11:33:55.979Z,52.70
2023-04-27T11:36:26.034Z,52.50
2023-04-27T11:38:58.415Z,52.30
2023-04-27T11:41:36.766Z,52.60
2023-04-27T11:44:08.375Z,52.60
2023-04-27T11:46:39.190Z,52.10
2023-04-27T11:49:09.156Z,52.10
2023-04-27T11:51:38.769Z,52.70
2023-04-27T11:54:08.574Z,52.10
2023-04-27T11:56:42.582Z,51.80
2023-04-27T11:59:23.070Z,51.60
2023-04-27T12:01:51.084Z,51.60
2023-04-27T12:04:18.744Z,51.40
2023-04-27T12:06:48.442Z,51.50
2023-04-27T12:09:17.494Z,51.60
2023-04-27T12:11:44.304Z,51.60
2023-04-27T12:14:11.459Z,51.40
2023-04-27T12:16:38.613Z,51.40
2023-04-27T12:19:05.586Z,51.20
2023-04-27T12:21:32.417Z,50.90
2023-04-27T12:23:59.259Z,50.60
2023-04-27T12:26:26.701Z,50.60
2023-04-27T12:28:56.030Z,50.60
2023-04-27T12:31:27.656Z,50.40
2023-04-27T12:33:54.864Z,50.30
2023-04-27T12:36:21.681Z,49.40
2023-04-27T12:38:48.590Z,49.40
2023-04-27T12:41:16.134Z,49.10
2023-04-27T12:43:43.633Z,49.30
2023-04-27T12:46:10.635Z,49.60
2023-04-27T12:48:37.564Z,49.50
2023-04-27T12:51:07.355Z,49.30
2023-04-27T12:53:34.192Z,49.40
2023-04-27T12:56:02.058Z,49.40
2023-04-27T12:58:30.038Z,49.80
2023-04-27T13:00:57.889Z,48.90
2023-04-27T13:03:25.169Z,49.20
2023-04-27T13:05:52.827Z,49.00
2023-04-27T13:08:22.532Z,48.50
2023-04-27T13:10:50.230Z,48.20
2023-04-27T13:13:19.763Z,47.90
2023-04-27T13:15:46.917Z,48.30
2023-04-27T13:18:14.532Z,47.70
2023-04-27T13:20:41.427Z,47.70
2023-04-27T13:23:08.282Z,47.70
2023-04-27T13:25:35.259Z,47.60
2023-04-27T13:28:05.336Z,47.50
2023-04-27T13:30:33.162Z,47.40
2023-04-27T13:33:14.242Z,47.50
2023-04-27T13:35:45.912Z,47.80
2023-04-27T13:38:13.212Z,48.00
2023-04-27T13:40:40.689Z,47.90
2023-04-27T13:43:08.330Z,47.60
2023-04-27T13:45:36.685Z,47.30
2023-04-27T13:48:03.675Z,47.30
2023-04-27T13:50:30.531Z,47.00
2023-04-27T13:52:57.455Z,47.30
2023-04-27T13:55:24.353Z,47.20
2023-04-27T13:57:51.363Z,47.30
2023-04-27T14:00:21.618Z,47.20
2023-04-27T14:02:48.502Z,47.20
2023-04-27T14:05:15.611Z,47.10
2023-04-27T14:07:42.485Z,47.10
2023-04-27T14:10:09.622Z,47.10
2023-04-27T14:12:36.834Z,47.10
2023-04-27T14:15:03.945Z,47.00
2023-04-27T14:17:31.541Z,47.20
2023-04-27T14:19:58.401Z,47.00
2023-04-27T14:22:25.260Z,46.70
2023-04-27T14:24:52.129Z,46.70
2023-04-27T14:27:19.195Z,46.90
2023-04-27T14:29:52.240Z,46.90
2023-04-27T14:32:19.651Z,47.20
2023-04-27T14:34:46.518Z,47.20
2023-04-27T14:37:13.646Z,47.20
2023-04-27T14:39:42.798Z,47.10
2023-04-27T14:42:14.305Z,47.20
2023-04-27T14:44:41.190Z,47.20
2023-04-27T14:47:08.013Z,47.00
2023-04-27T14:49:34.886Z,47.20
2023-04-27T14:52:04.823Z,47.20
2023-04-27T14:54:32.489Z,47.00
2023-04-27T14:57:01.182Z,47.20
2023-04-27T14:59:28.240Z,47.40
2023-04-27T15:01:55.777Z,47.10
2023-04-27T15:04:23.062Z,47.00
2023-04-27T15:06:49.930Z,46.90
2023-04-27T15:09:16.868Z,47.10
2023-04-27T15:11:43.615Z,47.00
2023-04-27T15:14:10.542Z,47.10
2023-04-27T15:16:37.446Z,46.80
2023-04-27T15:19:04.389Z,46.70
2023-04-27T15:21:32.411Z,46.70
2023-04-27T15:23:59.355Z,46.80
2023-04-27T15:26:28.751Z,46.70
2023-04-27T15:28:58.258Z,46.80
2023-04-27T15:31:25.206Z,46.50
2023-04-27T15:33:53.911Z,46.00
2023-04-27T15:36:22.954Z,45.80
2023-04-27T15:38:51.890Z,45.50
2023-04-27T15:41:19.085Z,45.70
2023-04-27T15:43:46.175Z,45.40
2023-04-27T15:46:13.424Z,45.30
2023-04-27T15:48:40.365Z,45.30
2023-04-27T15:51:10.069Z,45.00
2023-04-27T15:53:37.357Z,45.00
2023-04-27T15:56:04.254Z,44.90
2023-04-27T15:58:34.188Z,45.10
2023-04-27T16:01:01.373Z,44.80
2023-04-27T16:03:28.790Z,45.10
2023-04-27T16:05:56.041Z,45.10
2023-04-27T16:08:22.900Z,45.00
2023-04-27T16:10:50.598Z,44.90
2023-04-27T16:13:17.488Z,45.20
2023-04-27T16:15:44.813Z,45.30
2023-04-27T16:18:12.334Z,45.20
2023-04-27T16:20:39.351Z,45.20
2023-04-27T16:23:06.945Z,45.20
2023-04-27T16:25:33.726Z,45.60
2023-04-27T16:28:00.564Z,45.90
2023-04-27T16:30:27.405Z,46.00
2023-04-27T16:32:54.346Z,45.90
2023-04-27T16:35:21.654Z,46.10
2023-04-27T16:37:50.256Z,46.10
2023-04-27T16:40:17.105Z,46.40
2023-04-27T16:42:44.044Z,46.50
2023-04-27T16:45:11.804Z,46.40
2023-04-27T16:47:38.878Z,45.80
2023-04-27T16:50:06.556Z,45.80
2023-04-27T16:52:33.344Z,45.50
2023-04-27T16:55:00.455Z,45.60
2023-04-27T16:57:27.433Z,45.40
2023-04-27T16:59:54.256Z,45.40
2023-04-27T17:02:25.134Z,45.20
2023-04-27T17:04:53.809Z,45.40
2023-04-27T17:07:21.363Z,45.20
2023-04-27T17:09:48.608Z,45.20
2023-04-27T17:12:16.852Z,45.20
2023-04-27T17:14:43.652Z,45.80
2023-04-27T17:17:10.877Z,46.00
2023-04-27T17:19:39.534Z,46.10
2023-04-27T17:22:08.170Z,45.40
2023-04-27T17:24:34.935Z,45.50
2023-04-27T17:27:02.704Z,46.10
2023-04-27T17:29:29.545Z,46.60
2023-04-27T17:31:56.391Z,46.50
2023-04-27T17:34:23.298Z,46.60
2023-04-27T17:36:50.077Z,47.10
2023-04-27T17:39:22.562Z,47.50
2023-04-27T17:41:51.931Z,47.90
2023-04-27T17:44:18.769Z,48.20
2023-04-27T17:46:47.847Z,48.40
2023-04-27T17:49:15.917Z,48.60
2023-04-27T17:51:46.481Z,48.70
2023-04-27T17:54:13.928Z,48.70
2023-04-27T17:56:43.953Z,48.90
2023-04-27T17:59:11.436Z,48.90
2023-04-27T18:01:38.359Z,49.00
2023-04-27T18:04:09.863Z,49.10
2023-04-27T18:06:36.714Z,49.20
2023-04-27T18:09:03.650Z,49.30
2023-04-27T18:11:30.518Z,49.70
2023-04-27T18:14:00.486Z,49.60
2023-04-27T18:16:27.375Z,49.70
2023-04-27T18:18:54.736Z,49.70
2023-04-27T18:21:21.549Z,49.80
2023-04-27T18:23:48.444Z,49.90
2023-04-27T18:26:16.654Z,49.90
2023-04-27T18:28:43.469Z,50.10
2023-04-27T18:31:21.028Z,50.30
2023-04-27T18:33:47.912Z,50.40
2023-04-27T18:36:15.288Z,50.60
2023-04-27T18:38:42.123Z,50.70
2023-04-27T18:41:11.145Z,50.90
2023-04-27T18:43:40.304Z,51.00
2023-04-27T18:46:07.891Z,51.20
2023-04-27T18:48:34.796Z,51.30
2023-04-27T18:51:04.301Z,51.40
2023-04-27T18:53:31.056Z,51.40
2023-04-27T18:55:57.868Z,51.50
2023-04-27T18:58:24.732Z,51.60
2023-04-27T19:00:51.714Z,51.70
2023-04-27T19:03:19.369Z,51.70
2023-04-27T19:05:46.873Z,51.80
2023-04-27T19:08:16.819Z,51.90
2023-04-27T19:10:46.121Z,52.10
2023-04-27T19:13:13.765Z,52.20
2023-04-27T19:15:40.798Z,52.20
2023-04-27T19:18:10.954Z,52.20
2023-04-27T19:20:39.092Z,52.30
2023-04-27T19:23:09.489Z,52.40
2023-04-27T19:25:36.821Z,52.50
2023-04-27T19:28:04.545Z,52.60
2023-04-27T19:30:32.944Z,52.60
2023-04-27T19:32:59.751Z,52.80
2023-04-27T19:35:27.477Z,52.70
2023-04-27T19:37:56.052Z,52.70
2023-04-27T19:40:22.820Z,52.60
2023-04-27T19:42:50.635Z,52.40
2023-04-27T19:45:23.135Z,52.50
2023-04-27T19:47:51.472Z,52.80
2023-04-27T19:50:18.853Z,53.00
2023-04-27T19:52:45.725Z,52.90
2023-04-27T19:55:12.604Z,52.90
2023-04-27T19:57:40.107Z,52.80
2023-04-27T20:00:11.751Z,53.00
2023-04-27T20:02:38.918Z,53.10
2023-04-27T20:05:07.481Z,53.30
2023-04-27T20:07:34.619Z,53.20
2023-04-27T20:10:02.792Z,53.40
2023-04-27T20:15:02.146Z,53.70
2023-04-27T20:17:30.123Z,53.50
2023-04-27T20:19:57.193Z,53.60
2023-04-27T20:22:24.178Z,53.70
2023-04-27T20:24:51.901Z,53.80
2023-04-27T20:27:19.162Z,53.70
2023-04-27T20:29:48.117Z,53.90
2023-04-27T20:32:15.010Z,53.90
2023-04-27T20:34:41.810Z,54.00
2023-04-27T20:37:10.123Z,54.20
2023-04-27T20:39:37.063Z,54.30
2023-04-27T20:42:03.900Z,54.40
2023-04-27T20:44:32.955Z,54.40
2023-04-27T20:47:00.518Z,54.30
2023-04-27T20:49:34.230Z,54.50
2023-04-27T20:52:01.761Z,54.60
2023-04-27T20:54:30.952Z,54.50
2023-04-27T20:56:57.815Z,54.50
2023-04-27T20:59:24.676Z,54.40
2023-04-27T21:01:52.985Z,54.40
2023-04-27T21:04:21.221Z,54.50
2023-04-27T21:06:48.159Z,54.50
2023-04-27T21:09:14.906Z,54.20
2023-04-27T21:11:41.694Z,53.90
2023-04-27T21:14:08.603Z,54.10
2023-04-27T21:16:35.396Z,54.30
2023-04-27T21:19:02.278Z,54.40
2023-04-27T21:21:29.372Z,54.60
2023-04-27T21:24:06.807Z,54.60
2023-04-27T21:26:43.419Z,54.60
2023-04-27T21:29:10.176Z,54.80
2023-04-27T21:31:37.159Z,54.80
2023-04-27T21:34:04.788Z,54.80
2023-04-27T21:36:33.188Z,54.90
2023-04-27T21:39:00.000Z,54.70
2023-04-27T21:41:27.474Z,54.40
2023-04-27T21:43:54.359Z,55.00
2023-04-27T21:46:23.063Z,55.20
2023-04-27T21:48:49.897Z,55.30
2023-04-27T21:51:17.566Z,55.40
2023-04-27T21:53:44.357Z,55.60
2023-04-27T21:56:11.473Z,55.80
2023-04-27T21:58:38.507Z,55.60
2023-04-27T22:01:05.350Z,55.30
2023-04-27T22:03:32.787Z,55.40
2023-04-27T22:05:59.792Z,55.70
2023-04-27T22:08:26.650Z,55.70
2023-04-27T22:10:53.537Z,55.90
2023-04-27T22:13:20.897Z,55.90
2023-04-27T22:15:47.908Z,55.70
2023-04-27T22:18:15.599Z,55.80
2023-04-27T22:20:43.479Z,55.90
2023-04-27T22:23:10.843Z,55.70
2023-04-27T22:25:37.668Z,55.90
2023-04-27T22:28:05.333Z,55.80
2023-04-27T22:30:32.171Z,56.10
2023-04-27T22:32:59.818Z,56.20
2023-04-27T22:35:27.869Z,56.30
2023-04-27T22:37:56.749Z,56.50
2023-04-27T22:40:23.580Z,56.50
2023-04-27T22:42:50.797Z,56.50
2023-04-27T22:45:17.580Z,56.40
2023-04-27T22:47:46.336Z,56.50
2023-04-27T22:50:13.592Z,56.30
2023-04-27T22:52:42.513Z,55.90
2023-04-27T22:55:10.096Z,56.10
2023-04-27T22:57:37.907Z,56.10
2023-04-27T23:00:05.498Z,56.30
2023-04-27T23:02:32.592Z,56.30
2023-04-27T23:05:00.262Z,56.40
2023-04-27T23:07:27.085Z,56.50
2023-04-27T23:09:55.570Z,56.50
2023-04-27T23:12:22.425Z,56.60
2023-04-27T23:14:49.173Z,56.80
2023-04-27T23:17:18.665Z,56.50
2023-04-27T23:19:46.746Z,56.40
2023-04-27T23:22:15.800Z,56.30
2023-04-27T23:24:42.614Z,56.10
2023-04-27T23:27:10.097Z,56.30
2023-04-27T23:29:36.868Z,56.30
2023-04-27T23:32:04.453Z,56.30
2023-04-27T23:34:34.000Z,56.40
2023-04-27T23:37:00.876Z,56.50
2023-04-27T23:39:30.888Z,56.60
2023-04-27T23:41:58.187Z,56.60
2023-04-27T23:44:25.001Z,56.50
2023-04-27T23:46:52.114Z,56.50
2023-04-27T23:49:18.929Z,56.60
2023-04-27T23:51:46.047Z,56.70
2023-04-27T23:54:12.974Z,56.80
2023-04-27T23:56:41.624Z,56.80
2023-04-27T23:59:08.430Z,56.80
